createdAt,value
2018-02-11T00:00:14.889Z,2.00
2018-02-11T00:02:42.423Z,2.00
2018-02-11T00:05:09.951Z,2.00
2018-02-11T00:07:37.564Z,2.00
2018-02-11T00:10:05.154Z,2.00
2018-02-11T00:12:32.703Z,1.90
2018-02-11T00:15:00.305Z,1.90
2018-02-11T00:17:27.830Z,1.80
2018-02-11T00:19:56.128Z,1.90
2018-02-11T00:22:23.899Z,1.90
2018-02-11T00:24:51.443Z,1.90
2018-02-11T00:27:18.950Z,1.90
2018-02-11T00:29:46.513Z,1.90
2018-02-11T00:32:14.076Z,1.90
2018-02-11T00:34:41.618Z,1.90
2018-02-11T00:37:09.208Z,1.90
2018-02-11T00:39:36.743Z,1.90
2018-02-11T00:42:05.048Z,2.00
2018-02-11T00:44:32.636Z,2.00
2018-02-11T00:47:00.339Z,2.00
2018-02-11T00:49:27.907Z,2.00
2018-02-11T00:51:55.474Z,2.00
2018-02-11T00:54:23.798Z,2.00
2018-02-11T00:56:51.320Z,2.00
2018-02-11T00:59:18.976Z,2.00
2018-02-11T01:01:46.547Z,2.00
2018-02-11T01:04:14.112Z,2.00
2018-02-11T01:06:42.439Z,2.00
2018-02-11T01:09:09.975Z,1.90
2018-02-11T01:11:37.518Z,1.90
2018-02-11T01:14:05.072Z,2.00
2018-02-11T01:16:32.583Z,2.00
2018-02-11T01:19:00.152Z,2.00
2018-02-11T01:21:27.682Z,2.00
2018-02-11T01:23:55.245Z,2.00
2018-02-11T01:26:22.812Z,2.00
2018-02-11T01:28:50.548Z,2.00
2018-02-11T01:31:18.089Z,1.90
2018-02-11T01:33:45.664Z,1.90
2018-02-11T01:36:14.407Z,2.00
2018-02-11T01:38:41.978Z,2.00
2018-02-11T01:41:10.342Z,2.00
2018-02-11T01:43:38.019Z,2.00
2018-02-11T01:46:05.589Z,2.00
2018-02-11T01:48:33.261Z,1.90
2018-02-11T01:51:00.873Z,1.90
2018-02-11T01:53:28.444Z,1.90
2018-02-11T01:55:56.016Z,1.90
2018-02-11T01:58:24.343Z,1.90
2018-02-11T02:00:51.909Z,1.90
2018-02-11T02:03:19.481Z,1.90
2018-02-11T02:05:47.165Z,1.90
2018-02-11T02:08:14.732Z,1.80
2018-02-11T02:10:42.306Z,1.80
2018-02-11T02:13:10.668Z,1.80
2018-02-11T02:15:38.941Z,1.80
2018-02-11T02:18:06.468Z,1.80
2018-02-11T02:20:34.805Z,1.90
2018-02-11T02:23:02.323Z,1.90
2018-02-11T02:25:29.847Z,1.90
2018-02-11T02:27:57.394Z,1.90
2018-02-11T02:30:24.939Z,1.80
2018-02-11T02:32:52.521Z,1.70
2018-02-11T02:35:20.128Z,1.60
2018-02-11T02:37:47.696Z,1.50
2018-02-11T02:40:15.268Z,1.40
2018-02-11T02:42:43.744Z,1.40
2018-02-11T02:45:12.077Z,1.40
2018-02-11T02:47:39.649Z,1.40
2018-02-11T02:50:07.984Z,1.40
2018-02-11T02:52:35.457Z,1.40
2018-02-11T02:55:03.751Z,1.40
2018-02-11T02:57:31.305Z,1.40
2018-02-11T02:59:58.876Z,1.40
2018-02-11T03:02:26.351Z,1.40
2018-02-11T03:04:54.921Z,1.30
2018-02-11T03:07:23.248Z,1.20
2018-02-11T03:09:50.779Z,1.20
2018-02-11T03:12:18.623Z,1.20
2018-02-11T03:14:46.158Z,1.20
2018-02-11T03:17:13.691Z,1.30
2018-02-11T03:19:41.288Z,1.20
2018-02-11T03:22:09.633Z,1.30
2018-02-11T03:24:37.196Z,1.30
2018-02-11T03:27:05.043Z,1.40
2018-02-11T03:29:32.621Z,1.40
2018-02-11T03:32:00.196Z,1.50
2018-02-11T03:34:27.750Z,1.50
2018-02-11T03:36:55.280Z,1.50
2018-02-11T03:39:22.848Z,1.60
2018-02-11T03:41:50.486Z,1.70
2018-02-11T03:44:18.049Z,1.70
2018-02-11T03:46:45.620Z,1.80
2018-02-11T03:49:13.508Z,1.80
2018-02-11T03:51:41.292Z,1.70
2018-02-11T03:54:08.856Z,1.60
2018-02-11T03:56:37.316Z,1.50
2018-02-11T03:59:05.652Z,1.50
2018-02-11T04:01:33.229Z,1.50
2018-02-11T04:04:01.588Z,1.50
2018-02-11T04:06:29.896Z,1.50
2018-02-11T04:08:57.435Z,1.50
2018-02-11T04:11:24.983Z,1.50
2018-02-11T04:13:52.516Z,1.40
2018-02-11T04:16:20.100Z,1.40
2018-02-11T04:18:47.751Z,1.50
2018-02-11T04:21:15.287Z,1.40
2018-02-11T04:23:42.827Z,1.40
2018-02-11T04:26:10.332Z,1.40
2018-02-11T04:28:37.875Z,1.40
2018-02-11T04:31:05.414Z,1.40
2018-02-11T04:33:33.009Z,1.40
2018-02-11T04:36:00.581Z,1.40
2018-02-11T04:38:28.883Z,1.30
2018-02-11T04:40:56.476Z,1.30
2018-02-11T04:43:24.817Z,1.30
2018-02-11T04:45:52.393Z,1.30
2018-02-11T04:48:20.844Z,1.40
2018-02-11T04:50:49.184Z,1.40
2018-02-11T04:53:16.885Z,1.40
2018-02-11T04:55:44.611Z,1.50
2018-02-11T04:58:12.952Z,1.50
2018-02-11T05:00:40.491Z,1.50
2018-02-11T05:03:08.434Z,1.50
2018-02-11T05:05:35.938Z,1.50
2018-02-11T05:08:03.464Z,1.50
2018-02-11T05:10:31.836Z,1.50
2018-02-11T05:12:59.374Z,1.50
2018-02-11T05:15:26.965Z,1.50
2018-02-11T05:17:54.568Z,1.50
2018-02-11T05:20:22.119Z,1.50
2018-02-11T05:22:49.655Z,1.60
2018-02-11T05:25:17.220Z,1.60
2018-02-11T05:27:44.760Z,1.60
2018-02-11T05:30:12.337Z,1.60
2018-02-11T05:32:40.287Z,1.60
2018-02-11T05:35:07.860Z,1.60
2018-02-11T05:37:36.196Z,1.60
2018-02-11T05:40:03.797Z,1.60
2018-02-11T05:42:31.306Z,1.70
2018-02-11T05:44:58.830Z,1.70
2018-02-11T05:47:26.808Z,1.70
2018-02-11T05:49:55.144Z,1.70
2018-02-11T05:52:22.720Z,1.60
2018-02-11T05:54:51.047Z,1.70
2018-02-11T05:57:18.520Z,1.70
2018-02-11T05:59:46.861Z,1.80
2018-02-11T06:02:14.598Z,1.80
2018-02-11T06:04:42.168Z,1.80
2018-02-11T06:07:10.759Z,1.90
2018-02-11T06:09:38.360Z,1.90
2018-02-11T06:12:05.932Z,2.00
2018-02-11T06:14:34.276Z,2.10
2018-02-11T06:17:01.885Z,2.10
2018-02-11T06:19:29.456Z,2.20
2018-02-11T06:21:57.034Z,2.20
2018-02-11T06:24:25.397Z,2.30
2018-02-11T06:26:52.968Z,2.30
2018-02-11T06:29:20.489Z,2.30
2018-02-11T06:31:48.133Z,2.40
2018-02-11T06:34:15.612Z,2.40
2018-02-11T06:36:43.143Z,2.50
2018-02-11T06:39:10.711Z,2.40
2018-02-11T06:41:38.242Z,2.40
2018-02-11T06:44:05.778Z,2.50
2018-02-11T06:46:33.372Z,2.50
2018-02-11T06:49:01.717Z,2.50
2018-02-11T06:51:29.301Z,2.50
2018-02-11T06:53:57.111Z,2.50
2018-02-11T06:56:24.703Z,2.50
2018-02-11T06:58:52.243Z,2.60
2018-02-11T07:01:19.848Z,2.60
2018-02-11T07:03:47.420Z,2.60
2018-02-11T07:06:15.760Z,2.60
2018-02-11T07:08:43.512Z,2.60
2018-02-11T07:11:11.083Z,2.60
2018-02-11T07:13:38.558Z,2.60
2018-02-11T07:16:06.107Z,2.70
2018-02-11T07:18:33.676Z,2.70
2018-02-11T07:21:01.214Z,2.70
2018-02-11T07:23:28.954Z,2.70
2018-02-11T07:25:56.499Z,2.70
2018-02-11T07:28:24.085Z,2.70
2018-02-11T07:30:52.448Z,2.80
2018-02-11T07:33:20.751Z,2.80
2018-02-11T07:35:48.266Z,2.80
2018-02-11T07:38:16.819Z,2.90
2018-02-11T07:40:45.123Z,2.80
2018-02-11T07:43:12.664Z,2.80
2018-02-11T07:45:40.531Z,2.90
2018-02-11T07:48:08.076Z,2.80
2018-02-11T07:50:35.649Z,2.90
2018-02-11T07:53:03.971Z,3.00
2018-02-11T07:55:31.599Z,3.00
2018-02-11T07:57:59.077Z,3.00
2018-02-11T08:00:26.860Z,3.10
2018-02-11T08:02:55.200Z,3.20
2018-02-11T08:05:22.739Z,3.20
2018-02-11T08:07:50.308Z,3.20
2018-02-11T08:10:18.615Z,3.30
2018-02-11T08:12:46.163Z,3.20
2018-02-11T08:15:14.047Z,3.30
2018-02-11T08:17:41.620Z,3.30
2018-02-11T08:20:09.200Z,3.20
2018-02-11T08:22:37.024Z,3.30
2018-02-11T08:25:04.595Z,3.40
2018-02-11T08:27:32.169Z,3.50
2018-02-11T08:29:59.718Z,3.60
2018-02-11T08:32:27.259Z,3.60
2018-02-11T08:34:54.837Z,3.50
2018-02-11T08:37:22.436Z,3.40
2018-02-11T08:39:50.012Z,3.40
2018-02-11T08:42:17.568Z,3.50
2018-02-11T08:44:45.368Z,3.50
2018-02-11T08:47:12.942Z,3.50
2018-02-11T08:49:41.243Z,3.50
2018-02-11T08:52:08.898Z,3.50
2018-02-11T08:54:36.469Z,3.50
2018-02-11T08:57:04.010Z,3.50
2018-02-11T08:59:31.659Z,3.50
2018-02-11T09:01:59.204Z,3.50
2018-02-11T09:04:26.738Z,3.60
2018-02-11T09:06:54.497Z,3.60
2018-02-11T09:09:22.043Z,3.60
2018-02-11T09:11:49.618Z,3.60
2018-02-11T09:14:17.947Z,3.60
2018-02-11T09:16:45.479Z,3.60
2018-02-11T09:19:13.023Z,3.70
2018-02-11T09:21:40.654Z,3.70
2018-02-11T09:24:08.156Z,3.80
2018-02-11T09:26:36.479Z,4.00
2018-02-11T09:29:04.171Z,4.00
2018-02-11T09:31:31.753Z,4.20
2018-02-11T09:34:00.064Z,4.30
2018-02-11T09:36:28.391Z,4.30
2018-02-11T09:38:55.960Z,4.30
2018-02-11T09:41:24.271Z,3.80
2018-02-11T09:43:51.925Z,3.80
2018-02-11T09:46:19.500Z,3.70
2018-02-11T09:48:47.068Z,3.80
2018-02-11T09:51:15.503Z,3.80
2018-02-11T09:53:42.987Z,3.80
2018-02-11T09:56:10.552Z,3.80
2018-02-11T09:58:38.103Z,3.90
2018-02-11T10:01:05.636Z,3.80
2018-02-11T10:03:33.149Z,3.80
2018-02-11T10:06:00.715Z,3.80
2018-02-11T10:08:28.293Z,3.80
2018-02-11T10:10:55.842Z,3.80
2018-02-11T10:13:23.411Z,3.90
2018-02-11T10:15:51.744Z,3.90
2018-02-11T10:18:19.359Z,3.80
2018-02-11T10:20:47.020Z,3.90
2018-02-11T10:23:14.592Z,3.80
2018-02-11T10:25:42.127Z,3.70
2018-02-11T10:28:09.732Z,3.60
2018-02-11T10:30:37.307Z,3.50
2018-02-11T10:33:04.845Z,3.50
2018-02-11T10:35:32.659Z,3.40
2018-02-11T10:38:00.196Z,3.30
2018-02-11T10:40:28.532Z,3.30
2018-02-11T10:42:56.356Z,3.30
2018-02-11T10:45:23.896Z,3.30
2018-02-11T10:47:51.477Z,3.10
2018-02-11T10:50:20.268Z,2.90
2018-02-11T10:52:48.550Z,2.90
2018-02-11T10:55:16.075Z,2.80
2018-02-11T10:57:44.415Z,2.90
2018-02-11T11:00:12.000Z,2.90
2018-02-11T11:02:39.546Z,2.90
2018-02-11T11:05:07.243Z,3.00
2018-02-11T11:07:34.820Z,3.10
2018-02-11T11:10:03.167Z,3.30
2018-02-11T11:12:31.521Z,3.30
2018-02-11T11:14:59.063Z,3.30
2018-02-11T11:17:26.603Z,3.40
2018-02-11T11:19:54.274Z,3.30
2018-02-11T11:22:22.562Z,3.60
2018-02-11T11:24:50.152Z,3.60
2018-02-11T11:27:17.742Z,3.70
2018-02-11T11:29:45.344Z,3.80
2018-02-11T11:32:12.876Z,3.80
2018-02-11T11:34:40.488Z,3.80
2018-02-11T11:37:08.074Z,3.80
2018-02-11T11:39:35.584Z,3.80
2018-02-11T11:42:03.176Z,3.80
2018-02-11T11:44:31.522Z,3.80
2018-02-11T11:46:59.060Z,3.80
2018-02-11T11:49:26.652Z,3.90
2018-02-11T11:51:54.129Z,3.80
2018-02-11T11:54:21.701Z,3.80
2018-02-11T11:56:49.355Z,3.80
2018-02-11T11:59:16.932Z,3.80
2018-02-11T12:01:44.928Z,3.70
2018-02-11T12:04:12.744Z,3.70
2018-02-11T12:06:40.316Z,3.70
2018-02-11T12:09:08.652Z,3.70
2018-02-11T12:11:36.504Z,3.70
2018-02-11T12:14:04.088Z,3.70
2018-02-11T12:16:31.668Z,3.70
2018-02-11T12:18:59.260Z,3.80
2018-02-11T12:21:26.802Z,3.80
2018-02-11T12:23:54.335Z,3.70
2018-02-11T12:26:21.895Z,3.60
2018-02-11T12:28:49.431Z,3.60
2018-02-11T12:31:17.000Z,3.60
2018-02-11T12:33:44.595Z,3.40
2018-02-11T12:36:12.164Z,3.50
2018-02-11T12:38:39.736Z,3.50
2018-02-11T12:41:07.326Z,3.50
2018-02-11T12:43:34.798Z,3.60
2018-02-11T12:46:02.380Z,3.70
2018-02-11T12:48:30.915Z,3.90
2018-02-11T12:50:58.456Z,3.90
2018-02-11T12:53:26.024Z,3.90
2018-02-11T12:55:53.634Z,3.70
2018-02-11T12:58:21.203Z,3.70
2018-02-11T13:00:48.739Z,3.80
2018-02-11T13:03:16.456Z,4.00
2018-02-11T13:05:44.029Z,4.10
2018-02-11T13:08:11.613Z,4.10
2018-02-11T13:10:39.964Z,4.10
2018-02-11T13:13:08.305Z,4.10
2018-02-11T13:15:35.839Z,4.10
2018-02-11T13:18:03.802Z,4.20
2018-02-11T13:20:31.338Z,4.20
2018-02-11T13:22:58.925Z,4.20
2018-02-11T13:25:26.617Z,4.20
2018-02-11T13:27:54.163Z,4.20
2018-02-11T13:30:21.736Z,4.30
2018-02-11T13:32:50.093Z,4.20
2018-02-11T13:35:17.665Z,4.20
2018-02-11T13:37:45.975Z,4.30
2018-02-11T13:40:13.595Z,4.20
2018-02-11T13:42:41.184Z,4.10
2018-02-11T13:45:08.759Z,4.20
2018-02-11T13:47:36.373Z,4.30
2018-02-11T13:50:03.956Z,4.30
2018-02-11T13:52:31.511Z,4.40
2018-02-11T13:54:59.339Z,4.40
2018-02-11T13:57:27.643Z,4.50
2018-02-11T13:59:55.217Z,4.50
2018-02-11T14:02:22.808Z,4.50
2018-02-11T14:04:50.352Z,4.60
2018-02-11T14:07:17.932Z,4.70
2018-02-11T14:09:45.691Z,4.60
2018-02-11T14:12:13.304Z,4.70
2018-02-11T14:14:40.854Z,4.60
2018-02-11T14:17:08.736Z,4.60
2018-02-11T14:19:36.312Z,4.50
2018-02-11T14:22:04.611Z,4.50
2018-02-11T14:24:32.120Z,4.40
2018-02-11T14:27:00.483Z,4.60
2018-02-11T14:29:28.063Z,4.60
2018-02-11T14:31:55.651Z,4.60
2018-02-11T14:34:23.959Z,4.60
2018-02-11T14:36:51.621Z,4.50
2018-02-11T14:39:19.210Z,4.60
2018-02-11T14:41:47.552Z,4.60
2018-02-11T14:44:15.037Z,4.60
2018-02-11T14:46:42.684Z,4.70
2018-02-11T14:49:10.223Z,4.80
2018-02-11T14:51:37.766Z,4.90
2018-02-11T14:54:05.495Z,4.90
2018-02-11T14:56:33.818Z,4.90
2018-02-11T14:59:01.391Z,4.90
2018-02-11T15:01:29.156Z,5.00
2018-02-11T15:03:57.624Z,5.00
2018-02-11T15:06:25.135Z,5.00
2018-02-11T15:08:52.741Z,5.00
2018-02-11T15:11:20.302Z,5.00
2018-02-11T15:13:47.845Z,4.80
2018-02-11T15:16:15.510Z,4.70
2018-02-11T15:18:43.082Z,4.60
2018-02-11T15:21:11.452Z,4.30
2018-02-11T15:23:39.783Z,4.20
2018-02-11T15:26:07.332Z,4.10
2018-02-11T15:28:34.871Z,4.10
2018-02-11T15:31:02.481Z,4.00
2018-02-11T15:33:30.030Z,4.00
2018-02-11T15:35:57.613Z,4.00
2018-02-11T15:38:25.305Z,4.00
2018-02-11T15:40:52.898Z,4.00
2018-02-11T15:43:20.562Z,3.90
2018-02-11T15:45:48.241Z,4.00
2018-02-11T15:48:15.821Z,4.00
2018-02-11T15:50:43.460Z,4.00
2018-02-11T15:53:11.251Z,4.00
2018-02-11T15:55:39.598Z,3.90
2018-02-11T15:58:07.210Z,3.90
2018-02-11T16:00:34.956Z,3.90
2018-02-11T16:03:02.525Z,3.80
2018-02-11T16:05:30.156Z,3.80
2018-02-11T16:07:57.710Z,3.80
2018-02-11T16:10:25.290Z,3.70
2018-02-11T16:12:53.589Z,3.60
2018-02-11T16:15:21.336Z,3.60
2018-02-11T16:17:48.918Z,3.60
2018-02-11T16:20:16.543Z,3.60
2018-02-11T16:22:44.157Z,3.70
2018-02-11T16:25:11.748Z,3.60
2018-02-11T16:27:39.336Z,3.70
2018-02-11T16:30:07.145Z,3.70
2018-02-11T16:32:34.893Z,3.70
2018-02-11T16:35:02.540Z,3.70
2018-02-11T16:37:30.416Z,3.70
2018-02-11T16:39:57.972Z,3.70
2018-02-11T16:42:25.556Z,3.70
2018-02-11T16:44:54.282Z,3.60
2018-02-11T16:47:21.830Z,3.60
2018-02-11T16:49:50.127Z,3.60
2018-02-11T16:52:17.736Z,3.60
2018-02-11T16:54:45.304Z,3.60
2018-02-11T16:57:12.797Z,3.60
2018-02-11T16:59:40.482Z,3.60
2018-02-11T17:02:08.083Z,3.60
2018-02-11T17:04:36.440Z,3.60
2018-02-11T17:07:04.180Z,3.60
2018-02-11T17:09:31.719Z,3.70
2018-02-11T17:11:59.296Z,3.60
2018-02-11T17:14:27.656Z,3.60
2018-02-11T17:16:55.972Z,3.60
2018-02-11T17:19:23.551Z,3.60
2018-02-11T17:21:51.257Z,3.60
2018-02-11T17:24:18.899Z,3.60
2018-02-11T17:26:46.412Z,3.60
2018-02-11T17:29:14.036Z,3.60
2018-02-11T17:31:41.610Z,3.60
2018-02-11T17:34:09.192Z,3.60
2018-02-11T17:36:37.638Z,3.60
2018-02-11T17:39:05.201Z,3.60
2018-02-11T17:41:32.743Z,3.60
2018-02-11T17:44:00.319Z,3.60
2018-02-11T17:46:27.897Z,3.60
2018-02-11T17:48:55.459Z,3.50
2018-02-11T17:51:23.284Z,3.60
2018-02-11T17:53:50.870Z,3.50
2018-02-11T17:56:18.444Z,3.50
2018-02-11T17:58:46.179Z,3.50
2018-02-11T18:01:13.752Z,3.50
2018-02-11T18:03:42.065Z,3.60
2018-02-11T18:06:09.615Z,3.50
2018-02-11T18:08:37.955Z,3.40
2018-02-11T18:11:05.532Z,3.40
2018-02-11T18:13:33.140Z,3.40
2018-02-11T18:16:00.716Z,3.30
2018-02-11T18:18:28.188Z,3.40
2018-02-11T18:20:55.751Z,3.40
2018-02-11T18:23:23.288Z,3.40
2018-02-11T18:25:51.629Z,3.40
2018-02-11T18:28:19.170Z,3.40
2018-02-11T18:30:46.694Z,3.40
2018-02-11T18:33:15.029Z,3.40
2018-02-11T18:35:42.843Z,3.40
2018-02-11T18:38:11.143Z,3.50
2018-02-11T18:40:38.683Z,3.50
2018-02-11T18:43:06.370Z,3.50
2018-02-11T18:45:33.936Z,3.50
2018-02-11T18:48:02.235Z,3.60
2018-02-11T18:50:29.821Z,3.50
2018-02-11T18:52:57.392Z,3.60
2018-02-11T18:55:25.729Z,3.60
2018-02-11T18:57:53.283Z,3.50
2018-02-11T19:00:20.817Z,3.60
2018-02-11T19:02:48.389Z,3.60
2018-02-11T19:05:16.659Z,3.60
2018-02-11T19:07:44.985Z,3.60
2018-02-11T19:10:12.552Z,3.60
2018-02-11T19:12:40.878Z,3.60
2018-02-11T19:15:08.442Z,3.60
2018-02-11T19:17:35.976Z,3.60
2018-02-11T19:20:03.522Z,3.60
2018-02-11T19:22:31.048Z,3.60
2018-02-11T19:24:59.363Z,3.60
2018-02-11T19:27:26.987Z,3.60
2018-02-11T19:29:55.296Z,3.60
2018-02-11T19:32:22.880Z,3.60
2018-02-11T19:34:50.485Z,3.60
2018-02-11T19:37:18.053Z,3.70
2018-02-11T19:39:45.616Z,3.70
2018-02-11T19:42:13.385Z,3.70
2018-02-11T19:44:41.625Z,3.70
2018-02-11T19:47:09.147Z,3.70
2018-02-11T19:49:36.932Z,3.70
2018-02-11T19:52:05.240Z,3.70
2018-02-11T19:54:32.783Z,3.70
2018-02-11T19:57:01.146Z,3.70
2018-02-11T19:59:28.716Z,3.70
2018-02-11T20:01:56.285Z,3.70
2018-02-11T20:04:24.901Z,3.70
2018-02-11T20:06:52.440Z,3.60
2018-02-11T20:09:20.141Z,3.70
2018-02-11T20:11:47.732Z,3.70
2018-02-11T20:14:15.238Z,3.70
2018-02-11T20:16:43.526Z,3.70
2018-02-11T20:19:11.121Z,3.70
2018-02-11T20:21:38.688Z,3.70
2018-02-11T20:24:07.025Z,3.70
2018-02-11T20:26:34.913Z,3.70
2018-02-11T20:29:02.434Z,3.70
2018-02-11T20:31:29.992Z,3.70
2018-02-11T20:33:57.901Z,3.70
2018-02-11T20:36:25.442Z,3.80
2018-02-11T20:38:52.972Z,3.80
2018-02-11T20:41:20.773Z,3.70
2018-02-11T20:43:49.076Z,3.80
2018-02-11T20:46:16.653Z,3.80
2018-02-11T20:48:44.256Z,3.80
2018-02-11T20:51:11.833Z,3.80
2018-02-11T20:53:40.200Z,3.90
2018-02-11T20:56:07.756Z,3.80
2018-02-11T20:58:35.320Z,3.80
2018-02-11T21:01:02.950Z,3.80
2018-02-11T21:03:30.619Z,3.70
2018-02-11T21:05:58.167Z,3.70
2018-02-11T21:08:25.736Z,3.70
2018-02-11T21:10:53.639Z,3.70
2018-02-11T21:13:21.167Z,3.70
2018-02-11T21:15:48.682Z,3.80
2018-02-11T21:18:16.455Z,3.70
2018-02-11T21:20:43.989Z,3.70
2018-02-11T21:23:11.520Z,3.70
2018-02-11T21:25:39.324Z,3.60
2018-02-11T21:28:07.665Z,3.70
2018-02-11T21:30:35.199Z,3.70
2018-02-11T21:33:02.889Z,3.70
2018-02-11T21:35:30.432Z,3.70
2018-02-11T21:37:57.963Z,3.70
2018-02-11T21:40:25.816Z,3.70
2018-02-11T21:42:54.189Z,3.70
2018-02-11T21:45:21.734Z,3.70
2018-02-11T21:47:49.336Z,3.70
2018-02-11T21:50:16.868Z,3.70
2018-02-11T21:52:44.403Z,3.70
2018-02-11T21:55:12.875Z,3.70
2018-02-11T21:57:40.436Z,3.70
2018-02-11T22:02:35.820Z,3.70
2018-02-11T22:05:03.355Z,3.70
2018-02-11T22:07:30.883Z,3.70
2018-02-11T22:09:58.475Z,3.70
2018-02-11T22:12:26.784Z,3.60
2018-02-11T22:14:54.328Z,3.60
2018-02-11T22:17:22.074Z,3.60
2018-02-11T22:19:50.550Z,3.70
2018-02-11T22:22:18.120Z,3.60
2018-02-11T22:24:45.759Z,3.60
2018-02-11T22:27:13.328Z,3.70
2018-02-11T22:29:41.669Z,3.60
2018-02-11T22:32:09.444Z,3.60
2018-02-11T22:34:37.743Z,3.60
2018-02-11T22:37:05.275Z,3.50
2018-02-11T22:39:33.070Z,3.60
2018-02-11T22:42:00.602Z,3.60
2018-02-11T22:44:28.931Z,3.50
2018-02-11T22:46:56.499Z,3.50
2018-02-11T22:49:24.063Z,3.40
2018-02-11T22:51:51.632Z,3.30
2018-02-11T22:54:20.204Z,3.30
2018-02-11T22:56:48.548Z,3.30
2018-02-11T22:59:16.124Z,3.30
2018-02-11T23:01:43.814Z,3.30
2018-02-11T23:04:11.323Z,3.30
2018-02-11T23:06:38.896Z,3.30
2018-02-11T23:09:06.737Z,3.30
2018-02-11T23:11:34.308Z,3.30
2018-02-11T23:14:01.839Z,3.40
2018-02-11T23:16:29.403Z,3.40
2018-02-11T23:18:56.936Z,3.40
2018-02-11T23:21:24.502Z,3.40
2018-02-11T23:23:52.859Z,3.30
2018-02-11T23:26:20.424Z,3.30
2018-02-11T23:28:48.724Z,3.00
2018-02-11T23:31:16.311Z,3.00
2018-02-11T23:33:43.887Z,2.90
2018-02-11T23:36:11.420Z,3.00
2018-02-11T23:38:39.864Z,3.10
2018-02-11T23:41:07.391Z,3.00
2018-02-11T23:43:34.956Z,3.10
2018-02-11T23:46:03.304Z,3.10
2018-02-11T23:48:30.772Z,3.10
2018-02-11T23:50:59.014Z,3.00
2018-02-11T23:53:26.688Z,3.00
2018-02-11T23:55:54.257Z,3.00
2018-02-11T23:58:21.794Z,3.00
